createdAt,value
2018-09-18T00:00:02.741Z,0.00
2018-09-18T00:01:56.058Z,0.00
2018-09-18T00:02:56.009Z,0.00
2018-09-18T00:04:49.339Z,0.00
2018-09-18T00:05:49.277Z,0.00
2018-09-18T00:07:42.604Z,0.00
2018-09-18T00:08:42.558Z,0.00
2018-09-18T00:10:35.892Z,0.00
2018-09-18T00:11:35.847Z,0.00
2018-09-18T00:13:29.149Z,0.00
2018-09-18T00:14:29.121Z,0.00
2018-09-18T00:16:22.446Z,0.00
2018-09-18T00:17:22.412Z,0.00
2018-09-18T00:19:15.698Z,0.00
2018-09-18T00:20:15.673Z,0.00
2018-09-18T00:22:09.000Z,0.00
2018-09-18T00:23:08.944Z,0.00
2018-09-18T00:25:01.765Z,0.00
2018-09-18T00:26:01.727Z,0.00
2018-09-18T00:27:55.058Z,0.00
2018-09-18T00:28:55.000Z,0.00
2018-09-18T00:30:47.833Z,0.00
2018-09-18T00:31:47.788Z,0.00
2018-09-18T00:33:41.090Z,0.00
2018-09-18T00:34:41.053Z,0.00
2018-09-18T00:36:34.383Z,0.00
2018-09-18T00:37:34.324Z,0.00
2018-09-18T00:39:27.628Z,0.00
2018-09-18T00:40:27.583Z,0.00
2018-09-18T00:42:20.915Z,0.00
2018-09-18T00:43:20.865Z,0.00
2018-09-18T00:45:14.173Z,0.00
2018-09-18T00:46:14.144Z,0.00
2018-09-18T00:48:07.460Z,0.00
2018-09-18T00:49:07.412Z,0.00
2018-09-18T00:51:00.740Z,0.00
2018-09-18T00:52:00.703Z,0.00
2018-09-18T00:53:54.024Z,0.00
2018-09-18T00:54:53.998Z,0.00
2018-09-18T00:56:47.309Z,0.00
2018-09-18T00:57:47.244Z,0.00
2018-09-18T00:59:40.549Z,0.00
2018-09-18T01:00:40.519Z,0.00
2018-09-18T01:02:33.831Z,0.00
2018-09-18T01:03:33.786Z,0.00
2018-09-18T01:05:27.103Z,0.00
2018-09-18T01:06:27.055Z,0.00
2018-09-18T01:08:20.375Z,0.00
2018-09-18T01:09:20.316Z,0.00
2018-09-18T01:11:13.643Z,0.00
2018-09-18T01:12:13.605Z,0.00
2018-09-18T01:14:06.920Z,0.00
2018-09-18T01:15:06.864Z,0.00
2018-09-18T01:17:00.181Z,0.00
2018-09-18T01:18:00.146Z,0.00
2018-09-18T01:19:52.991Z,0.00
2018-09-18T01:20:52.924Z,0.00
2018-09-18T01:22:46.236Z,0.00
2018-09-18T01:23:46.197Z,0.00
2018-09-18T01:25:39.510Z,0.00
2018-09-18T01:26:39.466Z,0.00
2018-09-18T01:28:32.775Z,0.00
2018-09-18T01:29:32.741Z,0.00
2018-09-18T01:31:26.035Z,0.00
2018-09-18T01:32:26.006Z,0.00
2018-09-18T01:34:18.829Z,0.00
2018-09-18T01:35:18.781Z,0.00
2018-09-18T01:37:11.590Z,0.00
2018-09-18T01:38:11.567Z,0.00
2018-09-18T01:40:04.875Z,0.00
2018-09-18T01:41:04.832Z,0.00
2018-09-18T01:42:58.147Z,0.00
2018-09-18T01:43:58.093Z,0.00
2018-09-18T01:45:51.410Z,0.00
2018-09-18T01:46:51.367Z,0.00
2018-09-18T01:48:44.187Z,0.00
2018-09-18T01:49:44.140Z,0.00
2018-09-18T01:51:37.440Z,0.00
2018-09-18T01:52:37.402Z,0.00
2018-09-18T01:54:30.226Z,0.00
2018-09-18T01:55:30.181Z,0.00
2018-09-18T01:57:23.497Z,0.00
2018-09-18T01:58:23.468Z,0.00
2018-09-18T02:00:16.277Z,0.00
2018-09-18T02:01:16.237Z,0.00
2018-09-18T02:03:09.533Z,0.00
2018-09-18T02:04:09.501Z,0.00
2018-09-18T02:06:17.406Z,0.00
2018-09-18T02:07:02.777Z,0.00
2018-09-18T02:08:55.592Z,0.00
2018-09-18T02:09:55.548Z,0.00
2018-09-18T02:11:48.868Z,0.00
2018-09-18T02:12:48.824Z,0.00
2018-09-18T02:14:42.131Z,0.00
2018-09-18T02:15:42.092Z,0.00
2018-09-18T02:17:35.407Z,0.00
2018-09-18T02:18:35.362Z,0.00
2018-09-18T02:20:28.688Z,0.00
2018-09-18T02:21:28.637Z,0.00
2018-09-18T02:23:21.936Z,0.00
2018-09-18T02:24:21.901Z,0.00
2018-09-18T02:26:14.732Z,0.00
2018-09-18T02:27:14.673Z,0.00
2018-09-18T02:29:07.975Z,0.00
2018-09-18T02:30:07.945Z,0.00
2018-09-18T02:32:01.266Z,0.00
2018-09-18T02:33:01.220Z,0.00
2018-09-18T02:34:54.547Z,0.00
2018-09-18T02:35:54.494Z,0.00
2018-09-18T02:37:47.309Z,0.00
2018-09-18T02:38:47.281Z,0.00
2018-09-18T02:40:40.596Z,0.00
2018-09-18T02:41:40.546Z,0.00
2018-09-18T02:43:33.843Z,0.00
2018-09-18T02:44:33.818Z,0.00
2018-09-18T02:46:27.123Z,0.00
2018-09-18T02:47:27.078Z,0.00
2018-09-18T02:49:20.383Z,0.00
2018-09-18T02:50:20.349Z,0.00
2018-09-18T02:52:13.168Z,0.00
2018-09-18T02:53:13.128Z,0.00
2018-09-18T02:55:06.436Z,0.00
2018-09-18T02:56:06.408Z,0.00
2018-09-18T02:57:59.223Z,0.00
2018-09-18T02:58:59.172Z,0.00
2018-09-18T03:00:52.495Z,0.00
2018-09-18T03:01:52.443Z,0.00
2018-09-18T03:03:45.758Z,0.00
2018-09-18T03:04:45.715Z,0.00
2018-09-18T03:06:39.041Z,0.00
2018-09-18T03:07:38.979Z,0.00
2018-09-18T03:09:32.285Z,0.00
2018-09-18T03:10:32.256Z,0.00
2018-09-18T03:12:25.569Z,0.00
2018-09-18T03:13:25.528Z,0.00
2018-09-18T03:15:18.832Z,0.00
2018-09-18T03:16:18.795Z,0.00
2018-09-18T03:18:11.630Z,0.00
2018-09-18T03:19:11.567Z,0.00
2018-09-18T03:21:05.051Z,0.00
2018-09-18T03:22:04.842Z,0.00
2018-09-18T03:23:58.177Z,0.00
2018-09-18T03:24:58.141Z,0.00
2018-09-18T03:26:50.972Z,0.00
2018-09-18T03:27:50.915Z,0.00
2018-09-18T03:29:44.225Z,0.00
2018-09-18T03:30:44.192Z,0.00
2018-09-18T03:32:37.505Z,0.00
2018-09-18T03:33:37.464Z,0.00
2018-09-18T03:35:30.288Z,0.00
2018-09-18T03:36:30.232Z,0.00
2018-09-18T03:38:23.551Z,0.00
2018-09-18T03:39:23.528Z,0.00
2018-09-18T03:41:16.348Z,0.00
2018-09-18T03:42:16.300Z,0.00
2018-09-18T03:44:09.616Z,0.00
2018-09-18T03:45:09.581Z,0.00
2018-09-18T03:47:02.912Z,0.00
2018-09-18T03:48:02.860Z,0.00
2018-09-18T03:49:56.182Z,0.00
2018-09-18T03:50:56.207Z,0.00
2018-09-18T03:52:48.966Z,0.00
2018-09-18T03:53:48.907Z,0.00
2018-09-18T03:55:42.226Z,0.00
2018-09-18T03:56:42.196Z,0.00
2018-09-18T03:58:35.012Z,0.00
2018-09-18T03:59:34.965Z,0.00
2018-09-18T04:01:27.821Z,0.00
2018-09-18T04:02:27.791Z,0.00
2018-09-18T04:04:21.106Z,0.00
2018-09-18T04:05:21.058Z,0.00
2018-09-18T04:07:13.878Z,0.00
2018-09-18T04:08:13.837Z,0.00
2018-09-18T04:10:06.657Z,0.00
2018-09-18T04:11:06.606Z,0.00
2018-09-18T04:12:59.932Z,0.00
2018-09-18T04:13:59.884Z,0.00
2018-09-18T04:15:52.688Z,0.00
2018-09-18T04:16:52.659Z,0.00
2018-09-18T04:18:45.980Z,0.00
2018-09-18T04:19:45.927Z,0.00
2018-09-18T04:21:38.737Z,0.00
2018-09-18T04:22:38.700Z,0.00
2018-09-18T04:24:31.522Z,0.00
2018-09-18T04:25:31.469Z,0.00
2018-09-18T04:27:24.292Z,0.00
2018-09-18T04:28:24.261Z,0.00
2018-09-18T04:30:17.075Z,0.00
2018-09-18T04:31:17.034Z,0.00
2018-09-18T04:33:10.338Z,0.00
2018-09-18T04:34:10.302Z,0.00
2018-09-18T04:36:03.622Z,0.00
2018-09-18T04:37:03.572Z,0.00
2018-09-18T04:38:56.400Z,0.00
2018-09-18T04:39:56.353Z,0.00
2018-09-18T04:41:49.179Z,0.00
2018-09-18T04:42:49.138Z,0.00
2018-09-18T04:44:41.959Z,0.00
2018-09-18T04:45:41.912Z,0.00
2018-09-18T04:47:35.220Z,0.00
2018-09-18T04:48:35.180Z,0.00
2018-09-18T04:50:28.504Z,4.00
2018-09-18T04:51:28.468Z,4.00
2018-09-18T04:53:21.268Z,4.00
2018-09-18T04:54:21.224Z,4.00
2018-09-18T04:56:14.064Z,4.00
2018-09-18T04:57:14.015Z,8.00
2018-09-18T04:59:06.810Z,12.00
2018-09-18T05:00:06.786Z,12.00
2018-09-18T05:01:59.654Z,16.00
2018-09-18T05:02:59.551Z,16.00
2018-09-18T05:04:52.888Z,24.00
2018-09-18T05:05:52.858Z,28.00
2018-09-18T05:07:46.140Z,36.00
2018-09-18T05:08:46.108Z,44.00
2018-09-18T05:10:38.931Z,52.00
2018-09-18T05:11:39.509Z,60.00
2018-09-18T05:13:31.691Z,76.00
2018-09-18T05:14:31.667Z,84.00
2018-09-18T05:16:24.996Z,100.00
2018-09-18T05:17:24.946Z,112.00
2018-09-18T05:19:18.329Z,132.00
2018-09-18T05:20:18.235Z,144.00
2018-09-18T05:22:11.560Z,164.00
2018-09-18T05:23:11.505Z,172.00
2018-09-18T05:25:04.835Z,196.00
2018-09-18T05:26:04.786Z,208.00
2018-09-18T05:27:57.610Z,232.00
2018-09-18T05:28:57.565Z,240.00
2018-09-18T05:30:50.401Z,264.00
2018-09-18T05:31:50.345Z,276.00
2018-09-18T05:33:43.350Z,300.00
2018-09-18T05:34:43.149Z,312.00
2018-09-18T05:36:37.478Z,336.00
2018-09-18T05:37:37.421Z,348.00
2018-09-18T05:39:30.723Z,372.00
2018-09-18T05:40:30.696Z,384.00
2018-09-18T05:42:24.041Z,408.00
2018-09-18T05:43:23.961Z,420.00
2018-09-18T05:45:17.292Z,444.00
2018-09-18T05:46:17.241Z,452.00
2018-09-18T05:48:11.640Z,476.00
2018-09-18T05:49:11.521Z,484.00
2018-09-18T05:51:04.363Z,504.00
2018-09-18T05:52:04.336Z,520.00
2018-09-18T05:53:57.144Z,540.00
2018-09-18T05:54:57.091Z,556.00
2018-09-18T05:56:51.581Z,576.00
2018-09-18T05:57:51.382Z,584.00
2018-09-18T05:59:44.198Z,604.00
2018-09-18T06:00:44.156Z,612.00
2018-09-18T06:02:37.586Z,632.00
2018-09-18T06:03:36.963Z,640.00
2018-09-18T06:05:30.273Z,660.00
2018-09-18T06:06:30.222Z,668.00
2018-09-18T06:08:24.563Z,688.00
2018-09-18T06:09:24.491Z,696.00
2018-09-18T06:11:17.343Z,720.00
2018-09-18T06:12:17.286Z,724.00
2018-09-18T06:14:10.123Z,744.00
2018-09-18T06:15:10.068Z,756.00
2018-09-18T06:17:03.988Z,772.00
2018-09-18T06:18:03.361Z,780.00
2018-09-18T06:19:56.673Z,800.00
2018-09-18T06:20:56.627Z,808.00
2018-09-18T06:22:49.986Z,824.00
2018-09-18T06:23:49.932Z,832.00
2018-09-18T06:25:43.223Z,848.00
2018-09-18T06:26:43.192Z,860.00
2018-09-18T06:28:36.517Z,880.00
2018-09-18T06:29:36.467Z,884.00
2018-09-18T06:31:29.773Z,900.00
2018-09-18T06:32:29.759Z,908.00
2018-09-18T06:34:23.082Z,916.00
2018-09-18T06:35:23.036Z,928.00
2018-09-18T06:37:16.359Z,940.00
2018-09-18T06:38:16.321Z,952.00
2018-09-18T06:40:09.663Z,968.00
2018-09-18T06:41:09.593Z,972.00
2018-09-18T06:43:02.937Z,988.00
2018-09-18T06:44:02.892Z,996.00
2018-09-18T06:45:56.199Z,1012.00
2018-09-18T06:46:56.159Z,1016.00
2018-09-18T06:48:49.009Z,1032.00
2018-09-18T06:49:48.962Z,1044.00
2018-09-18T06:51:41.766Z,1056.00
2018-09-18T06:52:41.750Z,1060.00
2018-09-18T06:54:34.652Z,1072.00
2018-09-18T06:55:34.530Z,1080.00
2018-09-18T06:57:27.947Z,1100.00
2018-09-18T06:58:27.820Z,1108.00
2018-09-18T07:00:20.748Z,1124.00
2018-09-18T07:01:20.614Z,1136.00
2018-09-18T07:03:13.924Z,1156.00
2018-09-18T07:04:13.886Z,1168.00
2018-09-18T07:06:07.217Z,1180.00
2018-09-18T07:07:07.178Z,1192.00
2018-09-18T07:09:00.001Z,1212.00
2018-09-18T07:09:59.973Z,1216.00
2018-09-18T07:11:52.823Z,1236.00
2018-09-18T07:12:52.775Z,1244.00
2018-09-18T07:14:46.068Z,1260.00
2018-09-18T07:15:46.029Z,1264.00
2018-09-18T07:17:40.354Z,1272.00
2018-09-18T07:18:40.300Z,1276.00
2018-09-18T07:20:33.661Z,1288.00
2018-09-18T07:21:33.632Z,1296.00
2018-09-18T07:23:26.920Z,1300.00
2018-09-18T07:24:26.889Z,1312.00
2018-09-18T07:26:19.709Z,1340.00
2018-09-18T07:27:19.670Z,1348.00
2018-09-18T07:29:13.571Z,1368.00
2018-09-18T07:30:12.939Z,1380.00
2018-09-18T07:32:06.260Z,1392.00
2018-09-18T07:33:06.220Z,1400.00
2018-09-18T07:34:59.067Z,1412.00
2018-09-18T07:35:59.053Z,1416.00
2018-09-18T07:37:51.889Z,1444.00
2018-09-18T07:38:51.804Z,1460.00
2018-09-18T07:40:46.141Z,1484.00
2018-09-18T07:41:46.106Z,1492.00
2018-09-18T07:43:39.420Z,1512.00
2018-09-18T07:44:39.405Z,1520.00
2018-09-18T07:46:32.690Z,1544.00
2018-09-18T07:47:32.660Z,1552.00
2018-09-18T07:49:25.490Z,1556.00
2018-09-18T07:50:25.450Z,1576.00
2018-09-18T07:52:18.889Z,1592.00
2018-09-18T07:53:18.756Z,1612.00
2018-09-18T07:55:11.574Z,1648.00
2018-09-18T07:56:11.547Z,1672.00
2018-09-18T07:58:04.382Z,1700.00
2018-09-18T07:59:04.338Z,1708.00
2018-09-18T08:00:57.188Z,1736.00
2018-09-18T08:01:57.136Z,1748.00
2018-09-18T08:03:50.565Z,1780.00
2018-09-18T08:04:49.936Z,1792.00
2018-09-18T08:06:42.814Z,1812.00
2018-09-18T08:07:42.736Z,1816.00
2018-09-18T08:09:36.052Z,1828.00
2018-09-18T08:10:36.022Z,1836.00
2018-09-18T08:12:29.353Z,1868.00
2018-09-18T08:13:29.303Z,1896.00
2018-09-18T08:15:22.625Z,1924.00
2018-09-18T08:16:22.608Z,1928.00
2018-09-18T08:18:15.938Z,1956.00
2018-09-18T08:19:15.943Z,1976.00
2018-09-18T08:21:11.227Z,2012.00
2018-09-18T08:22:11.248Z,2032.00
2018-09-18T08:24:04.518Z,2076.00
2018-09-18T08:25:04.549Z,2092.00
2018-09-18T08:26:57.319Z,2120.00
2018-09-18T08:27:57.288Z,2144.00
2018-09-18T08:29:50.613Z,2188.00
2018-09-18T08:30:50.577Z,2192.00
2018-09-18T08:32:43.533Z,2236.00
2018-09-18T08:33:43.378Z,2264.00
2018-09-18T08:35:36.694Z,2288.00
2018-09-18T08:36:36.664Z,2300.00
2018-09-18T08:38:29.995Z,2312.00
2018-09-18T08:39:29.959Z,2328.00
2018-09-18T08:41:23.286Z,2356.00
2018-09-18T08:42:23.271Z,2364.00
2018-09-18T08:44:16.580Z,2396.00
2018-09-18T08:45:16.543Z,2416.00
2018-09-18T08:47:09.846Z,2424.00
2018-09-18T08:48:09.818Z,2440.00
2018-09-18T08:50:03.149Z,2460.00
2018-09-18T08:51:03.099Z,2464.00
2018-09-18T08:52:56.572Z,2492.00
2018-09-18T08:53:56.397Z,2532.00
2018-09-18T08:55:49.710Z,2596.00
2018-09-18T08:56:49.724Z,2608.00
2018-09-18T08:58:43.010Z,2660.00
2018-09-18T08:59:42.965Z,2680.00
2018-09-18T09:01:36.282Z,2716.00
2018-09-18T09:02:36.270Z,2744.00
2018-09-18T09:04:29.595Z,2804.00
2018-09-18T09:05:29.562Z,2820.00
2018-09-18T09:07:22.886Z,2848.00
2018-09-18T09:08:22.914Z,2864.00
2018-09-18T09:10:16.170Z,2908.00
2018-09-18T09:11:16.130Z,2944.00
2018-09-18T09:13:09.494Z,3032.00
2018-09-18T09:14:09.409Z,3080.00
2018-09-18T09:16:02.766Z,3168.00
2018-09-18T09:17:02.722Z,3224.00
2018-09-18T09:18:55.550Z,3336.00
2018-09-18T09:19:55.537Z,3380.00
2018-09-18T09:21:48.976Z,3432.00
2018-09-18T09:22:48.875Z,3476.00
2018-09-18T09:24:42.145Z,3464.00
2018-09-18T09:25:42.109Z,3404.00
2018-09-18T09:27:35.489Z,3440.00
2018-09-18T09:28:35.401Z,3476.00
2018-09-18T09:30:28.767Z,3512.00
2018-09-18T09:31:28.732Z,3560.00
2018-09-18T09:33:22.076Z,3624.00
2018-09-18T09:34:22.018Z,3688.00
2018-09-18T09:36:15.369Z,3748.00
2018-09-18T09:37:15.385Z,3748.00
2018-09-18T09:39:08.685Z,3788.00
2018-09-18T09:40:08.606Z,3820.00
2018-09-18T09:42:01.927Z,3860.00
2018-09-18T09:43:01.898Z,3916.00
2018-09-18T09:44:55.311Z,4052.00
2018-09-18T09:45:55.208Z,4136.00
2018-09-18T09:47:48.513Z,4268.00
2018-09-18T09:48:48.491Z,4628.00
2018-09-18T09:50:41.825Z,74496.00
2018-09-18T09:51:41.845Z,82240.00
2018-09-18T09:53:35.097Z,90240.00
2018-09-18T09:54:35.083Z,90880.00
2018-09-18T09:56:28.433Z,86976.00
2018-09-18T09:57:28.384Z,84192.00
2018-09-18T09:59:21.712Z,77760.00
2018-09-18T10:00:21.722Z,70176.00
2018-09-18T10:02:15.033Z,55136.00
2018-09-18T10:03:14.992Z,47456.00
2018-09-18T10:05:08.342Z,37888.00
2018-09-18T10:06:08.304Z,35552.00
2018-09-18T10:08:01.699Z,34048.00
2018-09-18T10:09:01.657Z,33824.00
2018-09-18T10:10:57.199Z,33664.00
2018-09-18T10:11:57.017Z,33984.00
2018-09-18T10:13:51.274Z,34784.00
2018-09-18T10:14:51.272Z,35072.00
2018-09-18T10:16:44.612Z,35360.00
2018-09-18T10:17:44.691Z,35456.00
2018-09-18T10:19:37.908Z,36064.00
2018-09-18T10:20:37.880Z,36224.00
2018-09-18T10:22:31.275Z,37152.00
2018-09-18T10:23:31.225Z,36960.00
2018-09-18T10:25:25.567Z,37312.00
2018-09-18T10:26:25.730Z,37664.00
2018-09-18T10:28:18.876Z,37632.00
2018-09-18T10:29:18.864Z,37248.00
2018-09-18T10:31:14.236Z,38208.00
2018-09-18T10:32:14.181Z,38304.00
2018-09-18T10:34:08.603Z,38304.00
2018-09-18T10:35:08.540Z,38208.00
2018-09-18T10:37:01.916Z,38752.00
2018-09-18T10:38:01.893Z,38528.00
2018-09-18T10:39:56.272Z,38784.00
2018-09-18T10:40:56.307Z,38688.00
2018-09-18T10:42:49.643Z,38624.00
2018-09-18T10:43:49.542Z,38848.00
2018-09-18T10:45:42.919Z,38560.00
2018-09-18T10:46:42.849Z,39296.00
2018-09-18T10:48:36.242Z,24384.00
2018-09-18T10:49:36.170Z,36992.00
2018-09-18T10:51:29.526Z,41888.00
2018-09-18T10:52:29.552Z,38176.00
2018-09-18T10:54:23.874Z,9852.00
2018-09-18T10:55:23.887Z,10128.00
2018-09-18T10:57:18.274Z,40896.00
2018-09-18T10:58:18.188Z,14328.00
2018-09-18T11:00:12.556Z,29408.00
2018-09-18T11:01:12.491Z,12388.00
2018-09-18T11:03:06.840Z,10592.00
2018-09-18T11:04:06.805Z,8932.00
2018-09-18T11:06:01.176Z,41120.00
2018-09-18T11:07:01.274Z,40672.00
2018-09-18T11:08:54.642Z,40000.00
2018-09-18T11:09:54.463Z,13480.00
2018-09-18T11:11:47.848Z,40256.00
2018-09-18T11:12:47.822Z,39136.00
2018-09-18T11:14:41.173Z,38816.00
2018-09-18T11:15:41.213Z,37824.00
2018-09-18T11:17:35.441Z,36448.00
2018-09-18T11:18:35.407Z,36384.00
2018-09-18T11:20:29.746Z,35808.00
2018-09-18T11:21:29.795Z,35168.00
2018-09-18T11:23:24.087Z,33984.00
2018-09-18T11:24:24.125Z,33600.00
2018-09-18T11:26:18.396Z,33696.00
2018-09-18T11:27:18.376Z,11080.00
2018-09-18T11:29:12.733Z,33088.00
2018-09-18T11:30:12.698Z,32640.00
2018-09-18T11:32:06.077Z,32160.00
2018-09-18T11:33:06.036Z,31200.00
2018-09-18T11:35:00.399Z,8728.00
2018-09-18T11:36:00.393Z,25920.00
2018-09-18T11:37:54.698Z,7308.00
2018-09-18T11:38:54.699Z,23936.00
2018-09-18T11:40:48.048Z,28352.00
2018-09-18T11:41:48.072Z,28640.00
2018-09-18T11:43:42.443Z,27904.00
2018-09-18T11:44:42.396Z,24320.00
2018-09-18T11:46:35.707Z,5340.00
2018-09-18T11:47:35.647Z,5376.00
2018-09-18T11:49:30.028Z,25024.00
2018-09-18T11:50:29.977Z,24416.00
2018-09-18T11:52:23.347Z,23520.00
2018-09-18T11:53:23.358Z,23232.00
2018-09-18T11:55:17.689Z,22304.00
2018-09-18T11:56:17.678Z,22016.00
2018-09-18T11:58:12.062Z,21248.00
2018-09-18T11:59:12.018Z,20864.00
2018-09-18T12:01:06.373Z,20032.00
2018-09-18T12:02:06.302Z,20064.00
2018-09-18T12:03:59.659Z,19648.00
2018-09-18T12:04:59.623Z,19264.00
2018-09-18T12:06:53.038Z,19008.00
2018-09-18T12:07:52.955Z,19040.00
2018-09-18T12:09:46.354Z,12904.00
2018-09-18T12:10:46.294Z,12160.00
2018-09-18T12:12:40.636Z,12712.00
2018-09-18T12:13:40.697Z,16012.00
2018-09-18T12:15:35.954Z,14200.00
2018-09-18T12:16:35.984Z,17056.00
2018-09-18T12:18:30.285Z,9772.00
2018-09-18T12:19:30.301Z,17216.00
2018-09-18T12:21:24.650Z,6836.00
2018-09-18T12:22:24.708Z,6648.00
2018-09-18T12:24:18.965Z,8380.00
2018-09-18T12:25:18.976Z,8196.00
2018-09-18T12:27:12.276Z,8016.00
2018-09-18T12:28:12.254Z,10524.00
2018-09-18T12:30:06.624Z,9412.00
2018-09-18T12:31:06.540Z,14412.00
2018-09-18T12:32:59.890Z,13708.00
2018-09-18T12:33:59.861Z,11792.00
2018-09-18T12:35:54.297Z,8980.00
2018-09-18T12:36:54.189Z,8168.00
2018-09-18T12:38:48.580Z,7588.00
2018-09-18T12:39:48.501Z,7304.00
2018-09-18T12:41:42.931Z,7712.00
2018-09-18T12:42:42.933Z,8476.00
2018-09-18T12:44:36.174Z,7544.00
2018-09-18T12:45:36.155Z,7272.00
2018-09-18T12:47:29.550Z,8772.00
2018-09-18T12:48:29.471Z,8852.00
2018-09-18T12:50:23.072Z,8316.00
2018-09-18T12:51:22.774Z,7816.00
2018-09-18T12:53:16.121Z,7024.00
2018-09-18T12:54:16.247Z,7388.00
2018-09-18T12:56:10.506Z,7292.00
2018-09-18T12:57:10.517Z,7352.00
2018-09-18T12:59:03.746Z,8588.00
2018-09-18T13:00:03.852Z,5644.00
2018-09-18T13:01:57.071Z,7604.00
2018-09-18T13:02:57.145Z,6740.00
2018-09-18T13:04:51.397Z,6156.00
2018-09-18T13:05:51.370Z,6136.00
2018-09-18T13:07:45.695Z,6168.00
2018-09-18T13:08:45.643Z,5504.00
2018-09-18T13:10:39.000Z,6328.00
2018-09-18T13:11:39.005Z,6800.00
2018-09-18T13:13:33.357Z,5848.00
2018-09-18T13:14:33.310Z,8456.00
2018-09-18T13:16:26.643Z,8756.00
2018-09-18T13:17:26.609Z,7048.00
2018-09-18T13:19:19.906Z,8828.00
2018-09-18T13:20:19.928Z,8620.00
2018-09-18T13:22:14.315Z,5944.00
2018-09-18T13:23:14.191Z,6196.00
2018-09-18T13:25:07.549Z,8440.00
2018-09-18T13:26:07.494Z,8520.00
2018-09-18T13:28:00.858Z,7816.00
2018-09-18T13:29:00.828Z,7544.00
2018-09-18T13:30:55.137Z,5964.00
2018-09-18T13:31:55.142Z,8188.00
2018-09-18T13:33:48.479Z,7644.00
2018-09-18T13:34:48.445Z,7996.00
2018-09-18T13:36:41.779Z,6808.00
2018-09-18T13:37:41.754Z,12772.00
2018-09-18T13:39:36.138Z,7280.00
2018-09-18T13:40:36.073Z,8368.00
2018-09-18T13:42:29.440Z,7928.00
2018-09-18T13:43:29.685Z,9008.00
2018-09-18T13:45:22.729Z,9688.00
2018-09-18T13:46:22.727Z,9304.00
2018-09-18T13:48:16.009Z,9896.00
2018-09-18T13:49:16.005Z,8660.00
2018-09-18T13:51:10.363Z,9012.00
2018-09-18T13:52:10.303Z,7756.00
2018-09-18T13:54:03.654Z,7324.00
2018-09-18T13:55:03.619Z,8628.00
2018-09-18T13:56:56.960Z,9684.00
2018-09-18T13:57:56.931Z,9524.00
2018-09-18T13:59:50.264Z,4804.00
2018-09-18T14:00:50.239Z,9120.00
2018-09-18T14:02:43.585Z,9228.00
2018-09-18T14:03:43.545Z,5384.00
2018-09-18T14:05:36.932Z,4612.00
2018-09-18T14:06:36.868Z,4624.00
2018-09-18T14:08:30.205Z,4368.00
2018-09-18T14:09:30.273Z,4372.00
2018-09-18T14:11:23.564Z,4324.00
2018-09-18T14:12:23.517Z,5292.00
2018-09-18T14:14:16.848Z,6956.00
2018-09-18T14:15:16.893Z,7672.00
2018-09-18T14:17:10.150Z,4164.00
2018-09-18T14:18:10.941Z,5688.00
2018-09-18T14:20:03.522Z,5528.00
2018-09-18T14:21:03.432Z,3924.00
2018-09-18T14:22:56.811Z,3832.00
2018-09-18T14:23:56.776Z,7172.00
2018-09-18T14:25:50.110Z,4664.00
2018-09-18T14:26:50.083Z,3612.00
2018-09-18T14:28:43.441Z,3168.00
2018-09-18T14:29:43.400Z,3072.00
2018-09-18T14:31:36.741Z,3208.00
2018-09-18T14:32:36.702Z,2992.00
2018-09-18T14:34:30.043Z,2820.00
2018-09-18T14:35:30.020Z,3032.00
2018-09-18T14:37:23.369Z,3688.00
2018-09-18T14:38:23.352Z,6880.00
2018-09-18T14:40:16.697Z,5296.00
2018-09-18T14:41:16.661Z,7148.00
2018-09-18T14:43:09.961Z,7108.00
2018-09-18T14:44:09.946Z,6936.00
2018-09-18T14:46:04.310Z,6636.00
2018-09-18T14:47:04.350Z,6708.00
2018-09-18T14:48:57.589Z,3880.00
2018-09-18T14:49:57.577Z,3284.00
2018-09-18T14:51:50.920Z,5880.00
2018-09-18T14:52:50.876Z,6004.00
2018-09-18T14:54:44.206Z,3616.00
2018-09-18T14:55:44.197Z,5912.00
2018-09-18T14:57:37.521Z,4068.00
2018-09-18T14:58:37.496Z,5928.00
2018-09-18T15:00:30.831Z,3476.00
2018-09-18T15:01:30.784Z,3424.00
2018-09-18T15:03:24.142Z,4292.00
2018-09-18T15:04:24.100Z,3412.00
2018-09-18T15:06:17.446Z,3296.00
2018-09-18T15:07:17.450Z,3404.00
2018-09-18T15:09:10.743Z,3368.00
2018-09-18T15:10:10.733Z,3380.00
2018-09-18T15:12:04.072Z,3384.00
2018-09-18T15:13:04.049Z,3288.00
2018-09-18T15:14:58.387Z,3356.00
2018-09-18T15:15:58.344Z,3084.00
2018-09-18T15:17:51.697Z,2920.00
2018-09-18T15:18:51.638Z,5008.00
2018-09-18T15:20:44.984Z,5104.00
2018-09-18T15:21:44.950Z,5036.00
2018-09-18T15:23:38.278Z,4920.00
2018-09-18T15:24:38.248Z,4660.00
2018-09-18T15:26:31.602Z,2444.00
2018-09-18T15:27:31.587Z,4292.00
2018-09-18T15:29:24.873Z,4968.00
2018-09-18T15:30:24.852Z,5008.00
2018-09-18T15:32:18.308Z,5048.00
2018-09-18T15:33:18.192Z,5056.00
2018-09-18T15:35:11.500Z,5044.00
2018-09-18T15:36:11.467Z,4960.00
2018-09-18T15:38:05.909Z,4688.00
2018-09-18T15:39:05.769Z,4720.00
2018-09-18T15:40:59.122Z,4788.00
2018-09-18T15:41:59.080Z,4904.00
2018-09-18T15:43:52.424Z,4648.00
2018-09-18T15:44:52.387Z,4856.00
2018-09-18T15:46:45.717Z,4712.00
2018-09-18T15:47:45.693Z,4676.00
2018-09-18T15:49:39.023Z,4500.00
2018-09-18T15:50:38.993Z,4512.00
2018-09-18T15:52:32.355Z,4212.00
2018-09-18T15:53:32.298Z,2784.00
2018-09-18T15:55:25.670Z,3940.00
2018-09-18T15:56:25.599Z,3812.00
2018-09-18T15:58:18.960Z,3816.00
2018-09-18T15:59:18.961Z,3780.00
2018-09-18T16:01:12.279Z,3384.00
2018-09-18T16:02:12.226Z,3188.00
2018-09-18T16:04:06.602Z,1520.00
2018-09-18T16:05:06.529Z,1440.00
2018-09-18T16:06:59.854Z,3028.00
2018-09-18T16:07:59.825Z,3188.00
2018-09-18T16:09:53.265Z,3364.00
2018-09-18T16:10:53.141Z,3364.00
2018-09-18T16:12:46.479Z,3300.00
2018-09-18T16:13:46.462Z,3268.00
2018-09-18T16:15:39.791Z,3160.00
2018-09-18T16:16:39.797Z,3108.00
2018-09-18T16:18:33.090Z,3024.00
2018-09-18T16:19:33.049Z,3068.00
2018-09-18T16:21:26.371Z,2996.00
2018-09-18T16:22:26.344Z,3044.00
2018-09-18T16:24:19.671Z,3120.00
2018-09-18T16:25:19.654Z,3128.00
2018-09-18T16:27:12.973Z,3108.00
2018-09-18T16:28:12.963Z,3048.00
2018-09-18T16:30:06.281Z,2836.00
2018-09-18T16:31:06.276Z,2708.00
2018-09-18T16:32:59.583Z,2532.00
2018-09-18T16:33:59.546Z,2468.00
2018-09-18T16:35:52.912Z,2400.00
2018-09-18T16:36:52.945Z,2396.00
2018-09-18T16:38:46.223Z,2332.00
2018-09-18T16:39:46.160Z,2256.00
2018-09-18T16:41:39.506Z,2064.00
2018-09-18T16:42:39.493Z,1972.00
2018-09-18T16:44:32.815Z,1800.00
2018-09-18T16:45:32.767Z,1720.00
2018-09-18T16:47:26.091Z,1564.00
2018-09-18T16:48:26.137Z,1480.00
2018-09-18T16:50:19.395Z,1344.00
2018-09-18T16:51:19.362Z,1268.00
2018-09-18T16:53:12.677Z,1152.00
2018-09-18T16:54:12.669Z,1096.00
2018-09-18T16:56:06.002Z,988.00
2018-09-18T16:57:05.960Z,948.00
2018-09-18T16:59:00.039Z,892.00
2018-09-18T16:59:59.257Z,820.00
2018-09-18T17:01:52.583Z,776.00
2018-09-18T17:02:52.554Z,800.00
2018-09-18T17:04:45.904Z,752.00
2018-09-18T17:05:45.861Z,720.00
2018-09-18T17:07:39.180Z,656.00
2018-09-18T17:08:39.153Z,612.00
2018-09-18T17:10:32.532Z,548.00
2018-09-18T17:11:32.458Z,520.00
2018-09-18T17:13:25.871Z,472.00
2018-09-18T17:14:25.754Z,448.00
2018-09-18T17:16:19.096Z,420.00
2018-09-18T17:17:19.046Z,404.00
2018-09-18T17:19:12.369Z,372.00
2018-09-18T17:20:12.340Z,356.00
2018-09-18T17:22:05.689Z,320.00
2018-09-18T17:23:05.648Z,300.00
2018-09-18T17:24:58.960Z,280.00
2018-09-18T17:25:58.938Z,264.00
2018-09-18T17:27:52.278Z,228.00
2018-09-18T17:28:52.375Z,208.00
2018-09-18T17:30:45.559Z,164.00
2018-09-18T17:31:45.530Z,144.00
2018-09-18T17:33:38.863Z,124.00
2018-09-18T17:34:38.839Z,116.00
2018-09-18T17:36:32.149Z,96.00
2018-09-18T17:37:32.130Z,88.00
2018-09-18T17:39:25.450Z,72.00
2018-09-18T17:40:25.404Z,68.00
2018-09-18T17:42:18.781Z,52.00
2018-09-18T17:43:18.719Z,48.00
2018-09-18T17:45:12.071Z,40.00
2018-09-18T17:46:12.017Z,36.00
2018-09-18T17:48:05.380Z,28.00
2018-09-18T17:49:05.317Z,24.00
2018-09-18T17:50:58.646Z,20.00
2018-09-18T17:51:58.610Z,20.00
2018-09-18T17:53:51.976Z,12.00
2018-09-18T17:54:51.949Z,12.00
2018-09-18T17:56:45.291Z,8.00
2018-09-18T17:57:45.220Z,8.00